Ginys del Meteocat

Dades de l'estació automàtica Pinós

?
?
Resum diari 23:00 TU
Dades diàries de l'estació meteorològica
Temperatura mitjana 6.3 °C
Temperatura màxima 9.4 °C 13:51 TU
Temperatura mínima 3.8 °C 2:46 TU
Humitat relativa mitjana 87%
Precipitació acumulada 0.0 mm
Ratxa màxima del vent (6 m) 16.6 km/h - 60º 14:47 TU
Irradiació solar global 4.9 MJ/m2

El tram horari està expressat en Temps Universal (TU). Cal sumar una hora en horari d'hivern i dues en horari d'estiu per passar a l'hora oficial.

Pinós

Metadades estació meteorol´gica
Municipi Pinós
Comarca Solsonès
Altitud 659 m
Data alta 03.07.1995
Estat actual Operativa
Dades de període
Període
TU
TM
°C
TX
°C
TN
°C
HRM
%
PPT
mm
VVM (6 m)
km/h
DVM (6 m)
graus
VVX (6 m)
km/h
RS
W/m2
00:00 - 00:30 5.4 5.6 5.2 88 0.0 4.3 76 9.0 0
00:30 - 01:00 5.5 5.7 5.2 89 0.0 3.2 87 8.6 0
01:00 - 01:30 5.1 5.6 4.7 90 0.0 6.8 65 11.5 0
01:30 - 02:00 4.5 4.8 4.2 92 0.0 6.1 71 12.2 0
02:00 - 02:30 4.5 5.0 4.2 90 0.0 6.1 83 14.0 0
02:30 - 03:00 4.3 5.1 3.8 89 0.0 3.2 80 9.0 0
03:00 - 03:30 4.2 4.3 4.0 88 0.0 4.3 75 9.7 0
03:30 - 04:00 4.2 4.3 4.0 89 0.0 5.4 69 9.4 0
04:00 - 04:30 4.6 4.8 4.3 87 0.0 4.7 74 9.7 0
04:30 - 05:00 5.0 5.2 4.8 84 0.0 3.6 82 9.0 0
05:00 - 05:30 4.8 4.9 4.5 86 0.0 5.4 66 10.1 0
05:30 - 06:00 4.8 5.1 4.5 86 0.0 4.3 75 10.1 0
06:00 - 06:30 4.5 4.7 4.3 87 0.0 5.4 71 12.2 0
06:30 - 07:00 4.2 4.3 4.0 89 0.0 6.8 64 11.9 0
07:00 - 07:30 4.2 4.2 4.1 90 0.0 6.1 72 11.9 4
07:30 - 08:00 4.6 5.0 4.2 87 0.0 4.7 82 11.9 18
08:00 - 08:30 5.0 5.4 4.7 85 0.0 5.0 84 9.7 36
08:30 - 09:00 5.7 6.0 5.5 81 0.0 4.7 83 11.2 79
09:00 - 09:30 6.7 7.1 6.0 80 0.0 5.8 75 12.6 211
09:30 - 10:00 6.8 7.1 6.7 81 0.0 7.9 66 15.5 107
10:00 - 10:30 6.7 6.9 6.7 82 0.0 7.2 68 14.8 109
10:30 - 11:00 7.1 7.3 6.8 82 0.0 6.5 67 14.8 141
11:00 - 11:30 7.1 7.2 7.1 83 0.0 5.8 61 11.9 93
11:30 - 12:00 7.5 7.8 7.2 82 0.0 5.4 67 14.0 179
12:00 - 12:30 7.8 8.0 7.5 82 0.0 6.5 63 13.0 176
12:30 - 13:00 7.7 8.0 7.6 83 0.0 6.8 49 10.1 154
13:00 - 13:30 8.5 8.9 8.0 81 0.0 5.0 44 9.0 336
13:30 - 14:00 9.1 9.4 8.9 79 0.0 4.3 51 9.7 234
14:00 - 14:30 9.0 9.2 8.9 81 0.0 7.2 60 13.0 174
14:30 - 15:00 9.0 9.2 8.9 81 0.0 8.6 64 16.6 261
15:00 - 15:30 8.9 9.1 8.7 81 0.0 9.0 58 14.0 206
15:30 - 16:00 8.7 8.8 8.6 81 0.0 8.6 55 14.0 131
16:00 - 16:30 8.4 8.6 8.3 82 0.0 7.6 66 13.3 62
16:30 - 17:00 8.1 8.4 7.7 84 0.0 5.4 70 13.3 18
17:00 - 17:30 7.5 7.7 7.3 88 0.0 3.6 73 8.3 0
17:30 - 18:00 7.2 7.3 7.1 89 0.0 2.9 84 7.2 0
18:00 - 18:30 7.1 7.1 7.1 90 0.0 2.9 89 7.9 0
18:30 - 19:00 6.9 7.1 6.6 90 0.0 1.8 81 4.7 0
19:00 - 19:30 6.7 6.8 6.6 91 0.0 2.2 79 5.8 0
19:30 - 20:00 6.4 6.7 6.1 90 0.0 1.8 87 4.7 0
20:00 - 20:30 5.9 6.0 5.7 93 0.0 3.6 67 7.2 0
20:30 - 21:00 5.9 6.2 5.6 94 0.0 4.0 90 9.0 0
21:00 - 21:30 5.8 6.3 5.5 94 0.0 3.2 76 8.3 0
21:30 - 22:00 5.8 6.1 5.5 95 0.0 4.3 89 10.4 0
22:00 - 22:30 5.7 6.2 5.6 95 0.0 5.4 66 10.8 0
22:30 - 23:00 5.5 5.7 5.3 96 0.0 4.3 67 9.0 0
23:00 - 23:30 5.5 5.6 5.4 97 0.0 2.5 83 6.5 0

Les dades en taronja només han passat un control de qualitat automàtic. Resta pendent la seva validació definitiva.